createdAt,value
2018-08-30T00:00:08.489Z,1025.53
2018-08-30T00:01:08.484Z,1025.52
2018-08-30T00:02:08.480Z,1025.52
2018-08-30T00:03:08.479Z,1025.48
2018-08-30T00:04:08.475Z,1025.47
2018-08-30T00:05:08.468Z,1025.48
2018-08-30T00:06:08.463Z,1025.48
2018-08-30T00:07:08.459Z,1025.46
2018-08-30T00:08:08.455Z,1025.49
2018-08-30T00:09:08.451Z,1025.47
2018-08-30T00:10:08.447Z,1025.44
2018-08-30T00:11:08.443Z,1025.44
2018-08-30T00:12:08.437Z,1025.46
2018-08-30T00:13:08.432Z,1025.45
2018-08-30T00:14:08.429Z,1025.46
2018-08-30T00:15:08.424Z,1025.43
2018-08-30T00:16:08.421Z,1025.42
2018-08-30T00:17:08.416Z,1025.43
2018-08-30T00:18:08.412Z,1025.38
2018-08-30T00:19:08.411Z,1025.39
2018-08-30T00:20:08.410Z,1025.42
2018-08-30T00:21:08.399Z,1025.41
2018-08-30T00:22:08.395Z,1025.4
2018-08-30T00:23:08.393Z,1025.35
2018-08-30T00:24:08.386Z,1025.36
2018-08-30T00:25:08.382Z,1025.33
2018-08-30T00:26:08.377Z,1025.32
2018-08-30T00:27:08.373Z,1025.38
2018-08-30T00:28:08.369Z,1025.34
2018-08-30T00:29:08.364Z,1025.32
2018-08-30T00:30:08.360Z,1025.33
2018-08-30T00:31:08.356Z,1025.34
2018-08-30T00:32:08.351Z,1025.33
2018-08-30T00:33:08.347Z,1025.29
2018-08-30T00:34:08.342Z,1025.3
2018-08-30T00:35:08.338Z,1025.33
2018-08-30T00:36:08.334Z,1025.3
2018-08-30T00:37:08.330Z,1025.31
2018-08-30T00:38:08.334Z,1025.35
2018-08-30T00:39:08.320Z,1025.3
2018-08-30T00:40:08.316Z,1025.29
2018-08-30T00:41:08.311Z,1025.31
2018-08-30T00:42:08.313Z,1025.3
2018-08-30T00:43:08.302Z,1025.29
2018-08-30T00:44:08.299Z,1025.3
2018-08-30T00:45:08.299Z,1025.32
2018-08-30T00:46:08.289Z,1025.28
2018-08-30T00:47:08.285Z,1025.28
2018-08-30T00:48:08.283Z,1025.25
2018-08-30T00:49:08.276Z,1025.29
2018-08-30T00:50:08.275Z,1025.28
2018-08-30T00:51:08.273Z,1025.31
2018-08-30T00:52:08.263Z,1025.3
2018-08-30T00:53:08.258Z,1025.31
2018-08-30T00:54:08.254Z,1025.26
2018-08-30T00:55:08.250Z,1025.29
2018-08-30T00:56:08.244Z,1025.3
2018-08-30T00:57:08.240Z,1025.31
2018-08-30T00:58:08.236Z,1025.3
2018-08-30T00:59:08.231Z,1025.3
2018-08-30T01:00:08.227Z,1025.26
2018-08-30T01:01:08.223Z,1025.23
2018-08-30T01:02:08.218Z,1025.23
2018-08-30T01:03:08.212Z,1025.23
2018-08-30T01:04:08.208Z,1025.22
2018-08-30T01:05:08.204Z,1025.23
2018-08-30T01:06:08.200Z,1025.21
2018-08-30T01:08:08.189Z,1025.24
2018-08-30T01:09:08.185Z,1025.21
2018-08-30T01:10:08.180Z,1025.21
2018-08-30T01:11:08.176Z,1025.24
2018-08-30T01:12:08.172Z,1025.24
2018-08-30T01:13:08.167Z,1025.23
2018-08-30T01:15:08.157Z,1025.19
2018-08-30T01:16:08.152Z,1025.17
2018-08-30T01:18:08.143Z,1025.17
2018-08-30T01:19:08.138Z,1025.16
2018-08-30T01:20:08.134Z,1025.13
2018-08-30T01:21:08.128Z,1025.12
2018-08-30T01:22:08.125Z,1025.12
2018-08-30T01:23:08.119Z,1025.09
2018-08-30T01:24:08.115Z,1025.11
2018-08-30T01:25:08.110Z,1025.08
2018-08-30T01:26:08.105Z,1025.08
2018-08-30T01:27:08.103Z,1025.03
2018-08-30T01:28:08.095Z,1025.04
2018-08-30T01:29:08.090Z,1025.02
2018-08-30T01:30:08.086Z,1024.99
2018-08-30T01:31:08.081Z,1025
2018-08-30T01:32:08.077Z,1025.01
2018-08-30T01:33:08.071Z,1024.97
2018-08-30T01:34:08.067Z,1025
2018-08-30T01:35:08.062Z,1025.04
2018-08-30T01:36:08.057Z,1025.01
2018-08-30T01:37:08.052Z,1025
2018-08-30T01:38:08.047Z,1025.04
2018-08-30T01:39:08.042Z,1025.06
2018-08-30T01:40:08.037Z,1025
2018-08-30T01:41:08.033Z,1025.07
2018-08-30T01:42:08.028Z,1025.02
2018-08-30T01:43:08.027Z,1025.03
2018-08-30T01:44:08.019Z,1025.03
2018-08-30T01:45:08.014Z,1025
2018-08-30T01:46:08.009Z,1025.01
2018-08-30T01:47:08.004Z,1025.01
2018-08-30T01:48:07.999Z,1025.07
2018-08-30T01:49:08.011Z,1025.04
2018-08-30T01:50:07.989Z,1025.05
2018-08-30T01:51:07.985Z,1025.04
2018-08-30T01:52:07.980Z,1025.02
2018-08-30T01:53:07.975Z,1024.99
2018-08-30T01:54:07.969Z,1024.99
2018-08-30T01:55:07.967Z,1024.93
2018-08-30T01:56:07.965Z,1024.96
2018-08-30T01:57:07.955Z,1024.96
2018-08-30T01:58:07.950Z,1024.96
2018-08-30T01:59:07.945Z,1024.98
2018-08-30T02:00:07.941Z,1025.01
2018-08-30T02:01:07.935Z,1024.98
2018-08-30T02:02:07.935Z,1024.98
2018-08-30T02:03:07.926Z,1025.01
2018-08-30T02:04:07.921Z,1024.99
2018-08-30T02:05:07.916Z,1025.02
2018-08-30T02:06:07.911Z,1025
2018-08-30T02:07:07.906Z,1025
2018-08-30T02:08:07.901Z,1024.98
2018-08-30T02:09:07.896Z,1024.98
2018-08-30T02:10:07.892Z,1025
2018-08-30T02:11:07.887Z,1025.01
2018-08-30T02:12:07.881Z,1024.99
2018-08-30T02:13:07.879Z,1024.99
2018-08-30T02:14:07.871Z,1025.01
2018-08-30T02:15:07.866Z,1025.06
2018-08-30T02:16:07.861Z,1025
2018-08-30T02:17:07.856Z,1024.97
2018-08-30T02:18:07.851Z,1024.99
2018-08-30T02:19:07.848Z,1025.01
2018-08-30T02:20:07.845Z,1025.03
2018-08-30T02:21:07.836Z,1025.03
2018-08-30T02:22:07.832Z,1025.03
2018-08-30T02:23:07.826Z,1025.03
2018-08-30T02:24:07.821Z,1025.04
2018-08-30T02:25:07.816Z,1025.02
2018-08-30T02:26:07.815Z,1025.04
2018-08-30T02:27:07.806Z,1025
2018-08-30T02:28:07.801Z,1025.02
2018-08-30T02:29:07.796Z,1024.97
2018-08-30T02:30:07.792Z,1024.94
2018-08-30T02:31:07.786Z,1024.95
2018-08-30T02:32:07.781Z,1024.97
2018-08-30T02:33:07.776Z,1024.9
2018-08-30T02:34:07.770Z,1024.92
2018-08-30T02:35:07.770Z,1024.93
2018-08-30T02:36:07.761Z,1024.92
2018-08-30T02:37:07.756Z,1024.92
2018-08-30T02:38:07.750Z,1024.9
2018-08-30T02:39:07.745Z,1024.91
2018-08-30T02:40:07.740Z,1024.94
2018-08-30T02:41:07.734Z,1025.01
2018-08-30T02:42:07.730Z,1025.08
2018-08-30T02:43:07.780Z,1025
2018-08-30T02:44:07.721Z,1024.95
2018-08-30T02:45:07.713Z,1024.95
2018-08-30T02:46:07.708Z,1024.93
2018-08-30T02:47:07.705Z,1024.96
2018-08-30T02:48:07.699Z,1024.98
2018-08-30T02:49:07.751Z,1024.95
2018-08-30T02:50:07.692Z,1024.91
2018-08-30T02:51:07.683Z,1024.97
2018-08-30T02:52:07.678Z,1024.97
2018-08-30T02:53:07.673Z,1024.96
2018-08-30T02:54:07.671Z,1025.03
2018-08-30T02:55:07.663Z,1024.98
2018-08-30T02:56:07.657Z,1024.97
2018-08-30T02:57:07.657Z,1024.99
2018-08-30T02:58:07.650Z,1024.98
2018-08-30T02:59:07.642Z,1024.99
2018-08-30T03:00:07.637Z,1024.99
2018-08-30T03:01:07.631Z,1024.99
2018-08-30T03:02:07.629Z,1025.04
2018-08-30T03:03:07.621Z,1025.07
2018-08-30T03:04:07.615Z,1025.04
2018-08-30T03:05:07.611Z,1024.98
2018-08-30T03:06:07.605Z,1024.99
2018-08-30T03:07:07.599Z,1024.92
2018-08-30T03:08:07.595Z,1024.96
2018-08-30T03:09:07.589Z,1024.92
2018-08-30T03:10:07.583Z,1024.92
2018-08-30T03:11:07.578Z,1024.91
2018-08-30T03:12:07.576Z,1024.92
2018-08-30T03:13:07.568Z,1024.92
2018-08-30T03:14:07.563Z,1024.93
2018-08-30T03:15:07.557Z,1024.95
2018-08-30T03:16:07.556Z,1024.96
2018-08-30T03:17:07.546Z,1025.02
2018-08-30T03:18:07.540Z,1025.05
2018-08-30T03:19:07.535Z,1025.03
2018-08-30T03:20:07.530Z,1025.03
2018-08-30T03:21:07.526Z,1025.1
2018-08-30T03:22:07.519Z,1025.11
2018-08-30T03:23:07.514Z,1025.15
2018-08-30T03:24:07.510Z,1025.18
2018-08-30T03:25:07.503Z,1025.15
2018-08-30T03:26:07.498Z,1025.08
2018-08-30T03:27:07.495Z,1025.07
2018-08-30T03:28:07.488Z,1025.07
2018-08-30T03:29:07.481Z,1025.12
2018-08-30T03:30:07.550Z,1025.09
2018-08-30T03:31:07.672Z,1025.12
2018-08-30T03:32:07.467Z,1025.09
2018-08-30T03:33:07.460Z,1025.11
2018-08-30T03:34:07.460Z,1025.11
2018-08-30T03:35:07.450Z,1025.04
2018-08-30T03:36:07.444Z,1025.06
2018-08-30T03:37:07.440Z,1025.08
2018-08-30T03:38:07.433Z,1025.08
2018-08-30T03:39:07.428Z,1025.1
2018-08-30T03:40:07.422Z,1025.19
2018-08-30T03:41:07.416Z,1025.21
2018-08-30T03:42:07.412Z,1025.24
2018-08-30T03:43:07.418Z,1025.22
2018-08-30T03:44:07.402Z,1025.2
2018-08-30T03:45:07.402Z,1025.19
2018-08-30T03:46:07.396Z,1025.19
2018-08-30T03:47:07.476Z,1025.21
2018-08-30T03:48:26.580Z,1025.17
2018-08-30T03:49:07.373Z,1025.15
2018-08-30T03:50:07.367Z,1025.15
2018-08-30T03:51:07.362Z,1025.19
2018-08-30T03:54:07.346Z,1025.19
2018-08-30T03:55:07.399Z,1025.19
2018-08-30T03:56:07.337Z,1025.18
2018-08-30T03:57:07.329Z,1025.21
2018-08-30T03:58:07.323Z,1025.16
2018-08-30T03:59:07.321Z,1025.16
2018-08-30T04:00:07.313Z,1025.12
2018-08-30T04:01:07.307Z,1025.12
2018-08-30T04:02:07.300Z,1025.13
2018-08-30T04:03:07.295Z,1025.14
2018-08-30T04:05:07.284Z,1025.16
2018-08-30T04:06:07.279Z,1025.12
2018-08-30T04:07:07.273Z,1025.13
2018-08-30T04:08:07.267Z,1025.22
2018-08-30T04:09:07.261Z,1025.2
2018-08-30T04:10:07.256Z,1025.19
2018-08-30T04:11:07.251Z,1025.19
2018-08-30T04:12:07.246Z,1025.19
2018-08-30T04:14:07.233Z,1025.17
2018-08-30T04:15:07.228Z,1025.17
2018-08-30T04:16:07.225Z,1025.19
2018-08-30T04:17:07.218Z,1025.2
2018-08-30T04:18:07.213Z,1025.2
2018-08-30T04:19:07.207Z,1025.18
2018-08-30T04:20:07.200Z,1025.16
2018-08-30T04:21:07.195Z,1025.22
2018-08-30T04:22:07.251Z,1025.24
2018-08-30T04:23:07.187Z,1025.24
2018-08-30T04:24:07.178Z,1025.2
2018-08-30T04:25:07.173Z,1025.17
2018-08-30T04:26:07.172Z,1025.2
2018-08-30T04:27:07.218Z,1025.22
2018-08-30T04:28:07.159Z,1025.2
2018-08-30T04:29:07.152Z,1025.18
2018-08-30T04:30:07.147Z,1025.15
2018-08-30T04:31:07.141Z,1025.09
2018-08-30T04:32:07.136Z,1025.08
2018-08-30T04:33:07.131Z,1025.1
2018-08-30T04:34:07.126Z,1025.12
2018-08-30T04:35:07.122Z,1025.1
2018-08-30T04:36:07.122Z,1025.06
2018-08-30T04:37:07.111Z,1024.9
2018-08-30T04:38:07.105Z,1024.81
2018-08-30T04:39:07.099Z,1024.78
2018-08-30T04:40:07.095Z,1024.82
2018-08-30T04:41:07.089Z,1024.74
2018-08-30T04:42:07.088Z,1024.64
2018-08-30T04:43:07.079Z,1024.52
2018-08-30T04:44:07.075Z,1024.45
2018-08-30T04:45:07.070Z,1024.43
2018-08-30T04:46:07.063Z,1024.42
2018-08-30T04:47:07.058Z,1024.32
2018-08-30T04:48:07.054Z,1024.24
2018-08-30T04:49:07.048Z,1024.2
2018-08-30T04:50:07.087Z,1024.21
2018-08-30T04:51:07.039Z,1024.16
2018-08-30T04:52:07.034Z,1024.11
2018-08-30T04:53:07.029Z,1024.02
2018-08-30T04:54:07.025Z,1023.98
2018-08-30T04:55:07.020Z,1023.93
2018-08-30T04:56:07.016Z,1023.92
2018-08-30T04:57:07.011Z,1023.81
2018-08-30T04:58:07.010Z,1023.76
2018-08-30T04:59:07.002Z,1023.71
2018-08-30T05:00:06.997Z,1023.69
2018-08-30T05:01:06.997Z,1023.61
2018-08-30T05:02:06.991Z,1023.52
2018-08-30T05:03:06.985Z,1023.46
2018-08-30T05:04:06.981Z,1023.42
2018-08-30T05:05:06.982Z,1023.43
2018-08-30T05:06:06.973Z,1023.48
2018-08-30T05:07:06.968Z,1023.41
2018-08-30T05:08:06.965Z,1023.29
2018-08-30T05:09:06.960Z,1023.11
2018-08-30T05:10:06.977Z,1022.92
2018-08-30T05:11:06.952Z,1022.8
2018-08-30T05:12:06.952Z,1022.57
2018-08-30T05:13:06.946Z,1022.4
2018-08-30T05:14:06.943Z,1022.35
2018-08-30T05:15:06.939Z,1022.49
2018-08-30T05:16:06.936Z,1022.48
2018-08-30T05:17:06.933Z,1022.32
2018-08-30T05:18:06.931Z,1022.28
2018-08-30T05:19:06.926Z,1022.32
2018-08-30T05:20:06.924Z,1022.36
2018-08-30T05:21:06.922Z,1022.29
2018-08-30T05:22:06.919Z,1022.2
2018-08-30T05:23:07.041Z,1022.23
2018-08-30T05:24:06.914Z,1022.29
2018-08-30T05:25:06.911Z,1022.26
2018-08-30T05:26:06.907Z,1022.23
2018-08-30T05:27:07.916Z,1022.13
2018-08-30T05:28:06.903Z,1022.05
2018-08-30T05:29:06.901Z,1021.93
2018-08-30T05:30:06.898Z,1021.78
2018-08-30T05:31:06.900Z,1021.62
2018-08-30T05:32:06.895Z,1021.48
2018-08-30T05:33:06.895Z,1021.32
2018-08-30T05:34:06.891Z,1021.45
2018-08-30T05:35:06.889Z,1021.57
2018-08-30T05:36:06.888Z,1021.63
2018-08-30T05:37:06.891Z,1021.65
2018-08-30T05:38:06.884Z,1021.7
2018-08-30T05:39:06.884Z,1021.58
2018-08-30T05:40:06.892Z,1021.29
2018-08-30T05:41:06.881Z,1021.1
2018-08-30T05:42:06.881Z,1020.97
2018-08-30T05:43:06.883Z,1020.91
2018-08-30T05:44:06.878Z,1020.76
2018-08-30T05:45:06.878Z,1020.8
2018-08-30T05:46:06.877Z,1020.68
2018-08-30T05:47:06.878Z,1020.52
2018-08-30T05:48:06.882Z,1020.45
2018-08-30T05:49:06.878Z,1020.54
2018-08-30T05:50:06.878Z,1020.74
2018-08-30T05:51:06.879Z,1020.81
2018-08-30T05:52:06.877Z,1020.87
2018-08-30T05:53:06.879Z,1020.93
2018-08-30T05:54:06.881Z,1021.02
2018-08-30T05:55:06.879Z,1021.16
2018-08-30T05:56:06.880Z,1021.26
2018-08-30T05:57:06.881Z,1021.4
2018-08-30T05:58:06.885Z,1021.53
2018-08-30T05:59:06.881Z,1021.61
2018-08-30T06:00:06.881Z,1021.69
2018-08-30T06:01:06.882Z,1021.75
2018-08-30T06:02:06.883Z,1021.77
2018-08-30T06:03:06.883Z,1021.78
2018-08-30T06:04:06.883Z,1021.8
2018-08-30T06:05:06.883Z,1021.74
2018-08-30T06:06:06.883Z,1021.74
2018-08-30T06:07:06.886Z,1021.77
2018-08-30T06:08:06.883Z,1021.79
2018-08-30T06:09:06.885Z,1021.77
2018-08-30T06:10:06.885Z,1021.78
2018-08-30T06:11:06.887Z,1021.75
2018-08-30T06:12:06.883Z,1021.71
2018-08-30T06:13:06.994Z,1021.61
2018-08-30T06:14:06.887Z,1021.54
2018-08-30T06:15:06.881Z,1021.35
2018-08-30T06:16:06.881Z,1021.34
2018-08-30T06:17:06.879Z,1021.12
2018-08-30T06:18:06.880Z,1020.84
2018-08-30T06:19:06.880Z,1020.79
2018-08-30T06:20:06.886Z,1020.82
2018-08-30T06:21:06.879Z,1020.88
2018-08-30T06:22:06.879Z,1020.91
2018-08-30T06:23:06.882Z,1021.01
2018-08-30T06:24:06.881Z,1021.04
2018-08-30T06:25:06.881Z,1021.12
2018-08-30T06:26:06.881Z,1021.21
2018-08-30T06:27:06.881Z,1021.28
2018-08-30T06:28:06.889Z,1021.38
2018-08-30T06:29:06.884Z,1021.49
2018-08-30T06:30:06.882Z,1021.57
2018-08-30T06:31:06.882Z,1021.67
2018-08-30T06:32:06.882Z,1021.69
2018-08-30T06:33:06.883Z,1021.69
2018-08-30T06:34:06.886Z,1021.69
2018-08-30T06:35:06.952Z,1021.77
2018-08-30T06:36:06.882Z,1021.84
2018-08-30T06:37:06.886Z,1021.87
2018-08-30T06:38:06.884Z,1021.9
2018-08-30T06:39:06.883Z,1021.93
2018-08-30T06:40:06.884Z,1021.89
2018-08-30T06:41:06.883Z,1021.94
2018-08-30T06:42:06.884Z,1021.93
2018-08-30T06:43:06.883Z,1022
2018-08-30T06:44:06.883Z,1022.03
2018-08-30T06:45:06.886Z,1022.1
2018-08-30T06:46:06.887Z,1022.11
2018-08-30T06:47:06.889Z,1022.18
2018-08-30T06:48:06.884Z,1022.21
2018-08-30T06:49:07.015Z,1022.26
2018-08-30T06:50:06.883Z,1022.27
2018-08-30T06:51:06.884Z,1022.27
2018-08-30T06:52:06.884Z,1022.35
2018-08-30T06:53:06.882Z,1022.34
2018-08-30T06:54:06.884Z,1022.34
2018-08-30T06:55:06.882Z,1022.37
2018-08-30T06:56:06.881Z,1022.42
2018-08-30T06:57:06.880Z,1022.5
2018-08-30T06:58:06.880Z,1022.46
2018-08-30T06:59:06.880Z,1022.54
2018-08-30T07:00:06.879Z,1022.54
2018-08-30T07:01:06.878Z,1022.61
2018-08-30T07:02:06.878Z,1022.67
2018-08-30T07:03:06.877Z,1022.66
2018-08-30T07:04:06.943Z,1022.69
2018-08-30T07:05:06.875Z,1022.74
2018-08-30T07:06:06.875Z,1022.8
2018-08-30T07:07:06.874Z,1022.81
2018-08-30T07:08:06.912Z,1022.77
2018-08-30T07:09:06.872Z,1022.74
2018-08-30T07:10:06.872Z,1022.68
2018-08-30T07:11:06.882Z,1022.67
2018-08-30T07:12:06.870Z,1022.67
2018-08-30T07:13:06.870Z,1022.64
2018-08-30T07:14:06.872Z,1022.59
2018-08-30T07:15:06.984Z,1022.6
2018-08-30T07:16:06.867Z,1022.58
2018-08-30T07:17:06.866Z,1022.58
2018-08-30T07:18:06.865Z,1022.57
2018-08-30T07:19:06.863Z,1022.57
2018-08-30T07:20:06.862Z,1022.58
2018-08-30T07:21:06.882Z,1022.63
2018-08-30T07:22:06.861Z,1022.57
2018-08-30T07:23:06.860Z,1022.59
2018-08-30T07:24:06.889Z,1022.59
2018-08-30T07:25:06.859Z,1022.56
2018-08-30T07:26:06.863Z,1022.56
2018-08-30T07:27:06.857Z,1022.63
2018-08-30T07:28:06.855Z,1022.68
2018-08-30T07:29:06.855Z,1022.74
2018-08-30T07:30:06.854Z,1022.78
2018-08-30T07:31:06.853Z,1022.75
2018-08-30T07:32:06.853Z,1022.82
2018-08-30T07:33:06.852Z,1022.85
2018-08-30T07:34:06.868Z,1022.89
2018-08-30T07:35:06.957Z,1022.97
2018-08-30T07:36:06.850Z,1023.05
2018-08-30T07:37:06.848Z,1023.13
2018-08-30T07:38:06.848Z,1023.2
2018-08-30T07:39:06.847Z,1023.2
2018-08-30T07:40:06.846Z,1023.2
2018-08-30T07:41:06.845Z,1023.26
2018-08-30T07:42:06.845Z,1023.26
2018-08-30T07:43:06.844Z,1023.29
2018-08-30T07:44:06.862Z,1023.31
2018-08-30T07:45:06.841Z,1023.31
2018-08-30T07:46:06.840Z,1023.31
2018-08-30T07:47:06.848Z,1023.32
2018-08-30T07:48:06.838Z,1023.38
2018-08-30T07:49:06.836Z,1023.36
2018-08-30T07:50:06.836Z,1023.28
2018-08-30T07:51:06.891Z,1023.3
2018-08-30T07:52:06.833Z,1023.22
2018-08-30T07:53:06.832Z,1023.18
2018-08-30T07:54:06.832Z,1023.17
2018-08-30T07:55:06.830Z,1023.16
2018-08-30T07:56:06.828Z,1023.15
2018-08-30T07:57:06.827Z,1023.16
2018-08-30T07:58:06.827Z,1023.17
2018-08-30T07:59:06.824Z,1023.17
2018-08-30T08:00:06.876Z,1023.17
2018-08-30T08:01:06.823Z,1023.14
2018-08-30T08:02:06.824Z,1023.14
2018-08-30T08:03:06.820Z,1023.07
2018-08-30T08:04:06.820Z,1023.1
2018-08-30T08:05:06.819Z,1023.18
2018-08-30T08:06:06.892Z,1023.16
2018-08-30T08:07:06.888Z,1023.14
2018-08-30T08:08:06.816Z,1023.2
2018-08-30T08:09:06.821Z,1023.22
2018-08-30T08:10:06.814Z,1023.22
2018-08-30T08:11:06.813Z,1023.29
2018-08-30T08:12:06.936Z,1023.33
2018-08-30T08:13:06.811Z,1023.36
2018-08-30T08:14:06.809Z,1023.36
2018-08-30T08:15:06.809Z,1023.46
2018-08-30T08:16:06.809Z,1023.43
2018-08-30T08:17:06.808Z,1023.53
2018-08-30T08:18:06.806Z,1023.6
2018-08-30T08:19:06.828Z,1023.68
2018-08-30T08:20:06.805Z,1023.71
2018-08-30T08:21:06.803Z,1023.74
2018-08-30T08:22:06.802Z,1023.71
2018-08-30T08:23:06.804Z,1023.73
2018-08-30T08:24:06.800Z,1023.7
2018-08-30T08:25:06.799Z,1023.67
2018-08-30T08:26:06.798Z,1023.69
2018-08-30T08:27:06.798Z,1023.73
2018-08-30T08:28:06.797Z,1023.79
2018-08-30T08:29:06.796Z,1023.81
2018-08-30T08:30:06.800Z,1023.82
2018-08-30T08:31:06.817Z,1023.89
2018-08-30T08:32:06.798Z,1023.82
2018-08-30T08:33:06.791Z,1023.78
2018-08-30T08:34:06.789Z,1023.78
2018-08-30T08:35:06.793Z,1023.71
2018-08-30T08:36:06.786Z,1023.71
2018-08-30T08:37:06.798Z,1023.73
2018-08-30T08:38:06.788Z,1023.82
2018-08-30T08:39:06.788Z,1023.86
2018-08-30T08:40:06.785Z,1023.98
2018-08-30T08:41:06.785Z,1024
2018-08-30T08:42:06.782Z,1024.11
2018-08-30T08:43:06.780Z,1024.12
2018-08-30T08:44:06.779Z,1024.11
2018-08-30T08:45:06.779Z,1024.12
2018-08-30T08:46:06.778Z,1024.11
2018-08-30T08:47:06.776Z,1024.08
2018-08-30T08:48:06.779Z,1024.14
2018-08-30T08:49:06.775Z,1024.14
2018-08-30T08:50:06.774Z,1024.15
2018-08-30T08:51:06.794Z,1024.13
2018-08-30T08:52:06.772Z,1024.13
2018-08-30T08:53:06.771Z,1024.22
2018-08-30T08:54:06.772Z,1024.27
2018-08-30T08:55:06.769Z,1024.36
2018-08-30T08:56:06.767Z,1024.46
2018-08-30T08:57:06.767Z,1024.48
2018-08-30T08:58:06.765Z,1024.54
2018-08-30T08:59:06.794Z,1024.58
2018-08-30T09:00:06.763Z,1024.63
2018-08-30T09:01:06.764Z,1024.63
2018-08-30T09:02:06.760Z,1024.65
2018-08-30T09:03:06.761Z,1024.65
2018-08-30T09:04:06.759Z,1024.7
2018-08-30T09:05:06.758Z,1024.67
2018-08-30T09:06:06.761Z,1024.69
2018-08-30T09:07:06.780Z,1024.73
2018-08-30T09:08:06.754Z,1024.77
2018-08-30T09:09:06.751Z,1024.76
2018-08-30T09:10:06.751Z,1024.78
2018-08-30T09:11:06.753Z,1024.8
2018-08-30T09:12:06.749Z,1024.79
2018-08-30T09:13:06.748Z,1024.82
2018-08-30T09:14:06.747Z,1024.85
2018-08-30T09:15:06.745Z,1024.86
2018-08-30T09:16:06.743Z,1024.89
2018-08-30T09:17:06.744Z,1024.95
2018-08-30T09:18:06.741Z,1024.96
2018-08-30T09:19:06.740Z,1024.99
2018-08-30T09:20:06.743Z,1025.06
2018-08-30T09:21:06.741Z,1025.05
2018-08-30T09:22:06.736Z,1025.11
2018-08-30T09:23:06.809Z,1025.1
2018-08-30T09:24:06.735Z,1025.12
2018-08-30T09:25:06.732Z,1025.14
2018-08-30T09:26:06.730Z,1025.14
2018-08-30T09:27:06.774Z,1025.15
2018-08-30T09:28:06.727Z,1025.2
2018-08-30T09:29:06.728Z,1025.23
2018-08-30T09:30:06.724Z,1025.25
2018-08-30T09:31:06.832Z,1025.26
2018-08-30T09:32:06.723Z,1025.26
2018-08-30T09:33:06.720Z,1025.24
2018-08-30T09:34:06.717Z,1025.25
2018-08-30T09:35:06.720Z,1025.27
2018-08-30T09:36:06.716Z,1025.27
2018-08-30T09:37:06.714Z,1025.25
2018-08-30T09:38:06.717Z,1025.25
2018-08-30T09:39:06.713Z,1025.24
2018-08-30T09:40:06.709Z,1025.24
2018-08-30T09:41:06.708Z,1025.21
2018-08-30T09:42:06.705Z,1025.22
2018-08-30T09:43:06.704Z,1025.2
2018-08-30T09:44:06.703Z,1025.18
2018-08-30T09:45:06.701Z,1025.1
2018-08-30T09:46:06.699Z,1025.05
2018-08-30T09:47:06.698Z,1025.04
2018-08-30T09:48:06.698Z,1024.93
2018-08-30T09:49:06.694Z,1024.92
2018-08-30T09:50:06.694Z,1024.89
2018-08-30T09:51:06.692Z,1024.86
2018-08-30T09:52:06.691Z,1024.86
2018-08-30T09:53:06.689Z,1024.84
2018-08-30T09:54:06.689Z,1024.84
2018-08-30T09:55:06.686Z,1024.83
2018-08-30T09:56:06.684Z,1024.81
2018-08-30T09:57:06.926Z,1024.8
2018-08-30T09:58:06.682Z,1024.76
2018-08-30T09:59:06.681Z,1024.78
2018-08-30T10:00:06.678Z,1024.79
2018-08-30T10:01:06.677Z,1024.81
2018-08-30T10:02:06.676Z,1024.81
2018-08-30T10:03:06.674Z,1024.81
2018-08-30T10:04:06.672Z,1024.8
2018-08-30T10:05:06.673Z,1024.79
2018-08-30T10:06:06.669Z,1024.82
2018-08-30T10:07:06.667Z,1024.87
2018-08-30T10:08:06.666Z,1024.89
2018-08-30T10:09:06.689Z,1024.93
2018-08-30T10:10:06.663Z,1024.94
2018-08-30T10:11:06.661Z,1024.94
2018-08-30T10:12:06.660Z,1024.94
2018-08-30T10:13:06.658Z,1024.9
2018-08-30T10:14:06.657Z,1024.89
2018-08-30T10:15:06.661Z,1024.79
2018-08-30T10:16:06.654Z,1024.72
2018-08-30T10:17:06.652Z,1024.65
2018-08-30T10:18:06.650Z,1024.6
2018-08-30T10:19:06.660Z,1024.51
2018-08-30T10:20:06.648Z,1024.48
2018-08-30T10:21:06.646Z,1024.42
2018-08-30T10:22:06.645Z,1024.45
2018-08-30T10:23:06.897Z,1024.41
2018-08-30T10:24:06.646Z,1024.41
2018-08-30T10:25:06.646Z,1024.41
2018-08-30T10:26:06.639Z,1024.43
2018-08-30T10:27:06.637Z,1024.45
2018-08-30T10:28:06.640Z,1024.48
2018-08-30T10:29:06.636Z,1024.52
2018-08-30T10:30:06.635Z,1024.54
2018-08-30T10:31:06.633Z,1024.6
2018-08-30T10:32:06.632Z,1024.55
2018-08-30T10:33:06.631Z,1024.54
2018-08-30T10:34:06.630Z,1024.52
2018-08-30T10:35:06.629Z,1024.53
2018-08-30T10:36:06.628Z,1024.52
2018-08-30T10:37:06.716Z,1024.55
2018-08-30T10:38:06.626Z,1024.59
2018-08-30T10:39:06.624Z,1024.62
2018-08-30T10:40:06.622Z,1024.62
2018-08-30T10:41:06.622Z,1024.64
2018-08-30T10:42:06.625Z,1024.64
2018-08-30T10:43:06.620Z,1024.61
2018-08-30T10:44:06.620Z,1024.64
2018-08-30T10:45:06.617Z,1024.56
2018-08-30T10:46:06.616Z,1024.54
2018-08-30T10:47:06.616Z,1024.54
2018-08-30T10:48:06.615Z,1024.5
2018-08-30T10:49:06.614Z,1024.55
2018-08-30T10:50:06.613Z,1024.52
2018-08-30T10:51:06.614Z,1024.46
2018-08-30T10:52:06.611Z,1024.41
2018-08-30T10:53:06.611Z,1024.35
2018-08-30T10:54:06.610Z,1024.4
2018-08-30T10:55:06.608Z,1024.44
2018-08-30T10:56:06.647Z,1024.46
2018-08-30T10:57:06.607Z,1024.55
2018-08-30T10:58:06.609Z,1024.61
2018-08-30T10:59:06.610Z,1024.63
2018-08-30T11:00:06.604Z,1024.67
2018-08-30T11:01:06.604Z,1024.69
2018-08-30T11:02:06.614Z,1024.68
2018-08-30T11:03:06.602Z,1024.63
2018-08-30T11:04:06.625Z,1024.61
2018-08-30T11:05:06.600Z,1024.5
2018-08-30T11:06:06.599Z,1024.41
2018-08-30T11:07:06.617Z,1024.33
2018-08-30T11:08:06.602Z,1024.46
2018-08-30T11:09:06.616Z,1024.62
2018-08-30T11:10:06.596Z,1024.64
2018-08-30T11:11:06.648Z,1024.56
2018-08-30T11:12:06.595Z,1024.56
2018-08-30T11:13:06.840Z,1024.62
2018-08-30T11:14:06.593Z,1024.68
2018-08-30T11:15:06.592Z,1024.69
2018-08-30T11:16:06.592Z,1024.72
2018-08-30T11:17:06.590Z,1024.83
2018-08-30T11:18:06.594Z,1024.89
2018-08-30T11:19:06.590Z,1024.92
2018-08-30T11:20:06.591Z,1024.95
2018-08-30T11:21:06.588Z,1025.01
2018-08-30T11:22:06.587Z,1025.05
2018-08-30T11:23:06.586Z,1024.99
2018-08-30T11:24:06.585Z,1025.14
2018-08-30T11:25:06.584Z,1025.16
2018-08-30T11:26:06.583Z,1025.17
2018-08-30T11:27:06.581Z,1025.2
2018-08-30T11:28:06.580Z,1025.2
2018-08-30T11:29:06.580Z,1025.21
2018-08-30T11:30:06.578Z,1025.23
2018-08-30T11:31:06.580Z,1025.23
2018-08-30T11:32:06.575Z,1025.14
2018-08-30T11:33:06.579Z,1025.03
2018-08-30T11:34:06.574Z,1025.02
2018-08-30T11:35:06.572Z,1024.98
2018-08-30T11:36:06.620Z,1024.91
2018-08-30T11:37:06.571Z,1024.83
2018-08-30T11:38:06.570Z,1024.78
2018-08-30T11:39:06.568Z,1024.83
2018-08-30T11:40:06.568Z,1024.83
2018-08-30T11:41:06.574Z,1024.89
2018-08-30T11:42:06.565Z,1024.98
2018-08-30T11:43:06.563Z,1025.03
2018-08-30T11:44:06.565Z,1025.1
2018-08-30T11:45:06.562Z,1025.14
2018-08-30T11:46:06.561Z,1025.1
2018-08-30T11:47:06.559Z,1025.04
2018-08-30T11:48:06.559Z,1025.02
2018-08-30T11:49:06.557Z,1024.97
2018-08-30T11:50:06.557Z,1024.92
2018-08-30T11:51:06.562Z,1024.98
2018-08-30T11:52:06.578Z,1024.93
2018-08-30T11:53:06.553Z,1024.82
2018-08-30T11:54:06.557Z,1024.72
2018-08-30T11:55:06.552Z,1024.63
2018-08-30T11:56:06.563Z,1024.65
2018-08-30T11:57:06.551Z,1024.64
2018-08-30T11:58:06.550Z,1024.64
2018-08-30T11:59:06.548Z,1024.83
2018-08-30T12:00:06.549Z,1024.9
2018-08-30T12:01:06.547Z,1024.95
2018-08-30T12:02:06.545Z,1025.01
2018-08-30T12:03:06.595Z,1024.92
2018-08-30T12:04:06.558Z,1024.95
2018-08-30T12:05:06.543Z,1024.97
2018-08-30T12:06:06.543Z,1025.03
2018-08-30T12:07:06.543Z,1025.12
2018-08-30T12:08:06.648Z,1025.21
2018-08-30T12:09:06.540Z,1025.34
2018-08-30T12:10:06.576Z,1025.41
2018-08-30T12:11:06.679Z,1025.43
2018-08-30T12:12:06.546Z,1025.55
2018-08-30T12:13:06.536Z,1025.59
2018-08-30T12:14:06.535Z,1025.6
2018-08-30T12:15:06.535Z,1025.62